createdAt,value
2022-11-29T00:01:39.361Z,10.40
2022-11-29T00:04:06.939Z,9.50
2022-11-29T00:06:35.802Z,9.90
2022-11-29T00:09:09.314Z,9.30
2022-11-29T00:11:57.017Z,8.70
2022-11-29T00:14:25.787Z,9.60
2022-11-29T00:17:02.139Z,10.57
2022-11-29T00:19:33.346Z,10.37
2022-11-29T00:22:00.972Z,10.07
2022-11-29T00:24:28.768Z,10.90
2022-11-29T00:26:55.660Z,11.50
2022-11-29T00:29:22.561Z,10.87
2022-11-29T00:31:49.511Z,10.20
2022-11-29T00:34:16.441Z,10.00
2022-11-29T00:36:43.345Z,8.27
2022-11-29T00:39:12.202Z,11.07
2022-11-29T00:41:39.672Z,10.40
2022-11-29T00:44:06.837Z,9.87
2022-11-29T00:46:34.090Z,10.50
2022-11-29T00:49:01.057Z,11.73
2022-11-29T00:51:28.034Z,11.07
2022-11-29T00:53:54.992Z,9.93
2022-11-29T00:56:22.059Z,11.33
2022-11-29T00:58:49.436Z,10.77
2022-11-29T01:01:16.542Z,11.07
2022-11-29T01:03:43.559Z,11.40
2022-11-29T01:06:13.815Z,10.90
2022-11-29T01:08:41.599Z,9.13
2022-11-29T01:11:24.806Z,8.53
2022-11-29T01:13:57.362Z,8.80
2022-11-29T01:16:25.006Z,9.13
2022-11-29T01:18:52.132Z,8.97
2022-11-29T01:21:22.897Z,9.30
2022-11-29T01:23:54.060Z,9.97
2022-11-29T01:26:25.731Z,9.33
2022-11-29T01:28:55.773Z,10.40
2022-11-29T01:31:36.364Z,10.43
2022-11-29T01:34:05.378Z,11.77
2022-11-29T01:36:32.617Z,12.57
2022-11-29T01:39:02.340Z,12.30
2022-11-29T01:41:33.210Z,17.07
2022-11-29T01:44:28.480Z,12.03
2022-11-29T01:46:56.351Z,14.27
2022-11-29T01:49:28.746Z,11.73
2022-11-29T01:52:11.032Z,11.47
2022-11-29T01:54:43.344Z,10.63
2022-11-29T01:57:11.780Z,10.90
2022-11-29T01:59:48.784Z,11.37
2022-11-29T02:02:30.383Z,10.03
2022-11-29T02:04:59.563Z,11.27
2022-11-29T02:07:26.715Z,10.10
2022-11-29T02:09:53.737Z,10.10
2022-11-29T02:12:58.648Z,10.50
2022-11-29T02:15:37.489Z,10.53
2022-11-29T02:18:16.215Z,9.50
2022-11-29T02:21:12.654Z,11.67
2022-11-29T02:24:16.889Z,9.40
2022-11-29T02:27:05.160Z,10.03
2022-11-29T02:30:02.347Z,9.70
2022-11-29T02:32:57.215Z,9.07
2022-11-29T02:35:54.195Z,8.50
2022-11-29T02:39:16.556Z,7.93
2022-11-29T02:42:06.565Z,8.23
2022-11-29T02:45:07.304Z,7.50
2022-11-29T02:47:54.085Z,9.10
2022-11-29T02:50:41.318Z,9.37
2022-11-29T02:53:40.820Z,9.53
2022-11-29T02:56:34.456Z,7.93
2022-11-29T02:59:39.477Z,7.60
2022-11-29T03:02:48.946Z,6.63
2022-11-29T03:05:57.951Z,6.70
2022-11-29T03:08:54.338Z,6.00
2022-11-29T03:11:36.166Z,7.80
2022-11-29T03:14:27.423Z,8.13
2022-11-29T03:16:57.426Z,8.63
2022-11-29T03:20:01.850Z,9.70
2022-11-29T03:22:48.325Z,8.70
2022-11-29T03:25:44.376Z,9.37
2022-11-29T03:28:41.998Z,9.00
2022-11-29T03:31:46.980Z,9.30
2022-11-29T03:34:38.940Z,9.80
2022-11-29T03:38:17.889Z,9.47
2022-11-29T03:41:09.241Z,9.27
2022-11-29T03:44:25.661Z,9.77
2022-11-29T03:47:07.910Z,9.17
2022-11-29T03:49:45.985Z,10.37
2022-11-29T03:52:41.496Z,9.57
2022-11-29T03:55:32.719Z,10.07
2022-11-29T03:58:23.654Z,9.73
2022-11-29T04:00:56.734Z,9.73
2022-11-29T04:03:57.341Z,9.77
2022-11-29T04:06:54.715Z,10.67
2022-11-29T04:09:42.630Z,11.17
2022-11-29T04:13:06.071Z,9.80
2022-11-29T04:15:57.832Z,10.80
2022-11-29T04:18:40.529Z,10.30
2022-11-29T04:21:47.866Z,8.87
2022-11-29T04:24:54.546Z,9.90
2022-11-29T04:27:49.329Z,11.37
2022-11-29T04:30:26.440Z,10.83
2022-11-29T04:33:16.710Z,10.73
2022-11-29T04:35:52.001Z,10.40
2022-11-29T04:38:49.668Z,9.70
2022-11-29T04:41:48.738Z,10.17
2022-11-29T04:44:26.394Z,9.13
2022-11-29T04:47:11.828Z,10.07
2022-11-29T04:50:04.389Z,12.27
2022-11-29T04:53:22.428Z,11.27
2022-11-29T04:56:13.307Z,11.80
2022-11-29T04:59:09.179Z,12.03
2022-11-29T05:02:11.049Z,11.07
2022-11-29T05:04:58.831Z,10.33
2022-11-29T05:07:57.094Z,9.90
2022-11-29T05:11:03.295Z,10.97
2022-11-29T05:13:45.535Z,10.47
2022-11-29T05:16:54.611Z,11.40
2022-11-29T05:20:08.800Z,11.00
2022-11-29T05:23:24.296Z,10.43
2022-11-29T05:26:24.840Z,11.27
2022-11-29T05:29:10.323Z,11.17
2022-11-29T05:32:23.228Z,11.07
2022-11-29T05:35:24.411Z,11.53
2022-11-29T05:38:13.685Z,12.27
2022-11-29T05:41:12.095Z,11.83
2022-11-29T05:44:17.529Z,11.03
2022-11-29T05:47:02.340Z,12.60
2022-11-29T05:49:54.178Z,12.07
2022-11-29T05:52:30.683Z,12.97
2022-11-29T05:55:42.711Z,13.37
2022-11-29T05:58:30.598Z,11.73
2022-11-29T06:01:14.545Z,12.57
2022-11-29T06:03:55.952Z,13.97
2022-11-29T06:06:47.206Z,13.23
2022-11-29T06:09:34.189Z,11.77
2022-11-29T06:12:25.158Z,11.83
2022-11-29T06:15:33.810Z,14.17
2022-11-29T06:18:25.127Z,12.97
2022-11-29T06:21:19.275Z,11.50
2022-11-29T06:24:26.154Z,9.63
2022-11-29T06:27:29.404Z,10.07
2022-11-29T06:30:20.945Z,10.17
2022-11-29T06:33:02.894Z,12.30
2022-11-29T06:35:51.955Z,13.53
2022-11-29T06:38:27.172Z,10.80
2022-11-29T06:41:01.829Z,10.33
2022-11-29T06:43:30.726Z,10.20
2022-11-29T06:46:12.764Z,10.27
2022-11-29T06:48:53.133Z,10.47
2022-11-29T06:52:27.556Z,10.20
2022-11-29T06:55:13.358Z,10.23
2022-11-29T06:58:19.997Z,9.40
2022-11-29T07:01:00.920Z,10.13
2022-11-29T07:03:47.510Z,10.20
2022-11-29T07:06:27.428Z,10.30
2022-11-29T07:09:00.734Z,9.83
2022-11-29T07:11:28.980Z,9.87
2022-11-29T07:13:56.327Z,11.70
2022-11-29T07:16:55.890Z,10.80
2022-11-29T07:19:46.137Z,10.80
2022-11-29T07:22:48.148Z,10.43
2022-11-29T07:25:31.993Z,11.20
2022-11-29T07:28:46.593Z,10.37
2022-11-29T07:31:16.461Z,9.97
2022-11-29T07:33:55.460Z,9.93
2022-11-29T07:36:45.618Z,10.37
2022-11-29T07:39:56.968Z,9.83
2022-11-29T07:43:08.283Z,10.53
2022-11-29T07:45:38.653Z,9.67
2022-11-29T07:48:06.975Z,10.83
2022-11-29T07:50:36.129Z,10.77
2022-11-29T07:53:03.482Z,10.60
2022-11-29T07:55:32.795Z,11.23
2022-11-29T07:57:59.752Z,12.17
2022-11-29T08:00:26.656Z,11.87
2022-11-29T08:02:53.748Z,11.50
2022-11-29T08:05:20.787Z,11.87
2022-11-29T08:07:47.822Z,12.00
2022-11-29T08:10:17.134Z,11.30
2022-11-29T08:12:47.427Z,11.90
2022-11-29T08:15:14.846Z,11.23
2022-11-29T08:17:42.017Z,11.80
2022-11-29T08:20:10.548Z,12.63
2022-11-29T08:22:37.769Z,13.00
2022-11-29T08:25:06.565Z,13.37
2022-11-29T08:27:38.666Z,12.30
2022-11-29T08:30:07.537Z,13.67
2022-11-29T08:32:35.183Z,15.00
2022-11-29T08:35:02.191Z,12.57
2022-11-29T08:37:29.111Z,14.37
2022-11-29T08:39:58.263Z,13.50
2022-11-29T08:42:25.300Z,15.80
2022-11-29T08:44:52.261Z,13.90
2022-11-29T08:47:37.130Z,13.17
2022-11-29T08:50:30.501Z,13.53
2022-11-29T08:53:16.893Z,13.80
2022-11-29T08:55:46.543Z,13.80
2022-11-29T08:58:15.618Z,13.97
2022-11-29T09:00:46.935Z,13.93
2022-11-29T09:03:32.361Z,14.10
2022-11-29T09:05:59.686Z,14.07
2022-11-29T09:08:26.629Z,13.30
2022-11-29T09:10:53.701Z,14.23
2022-11-29T09:13:20.853Z,15.70
2022-11-29T09:15:47.841Z,14.43
2022-11-29T09:18:14.783Z,15.17
2022-11-29T09:20:45.266Z,15.13
2022-11-29T09:23:15.181Z,16.77
2022-11-29T09:25:48.749Z,19.00
2022-11-29T09:28:15.950Z,16.60
2022-11-29T09:30:42.897Z,15.63
2022-11-29T09:33:09.813Z,13.93
2022-11-29T09:35:36.707Z,16.03
2022-11-29T09:38:03.649Z,16.17
2022-11-29T09:41:14.656Z,15.17
2022-11-29T09:44:05.309Z,19.37
2022-11-29T09:46:40.642Z,19.00
2022-11-29T09:49:22.215Z,17.40
2022-11-29T09:52:10.671Z,16.10
2022-11-29T09:55:12.218Z,18.00
2022-11-29T09:57:40.006Z,10.93
2022-11-29T10:00:16.984Z,13.43
2022-11-29T10:03:10.328Z,14.37
2022-11-29T10:05:47.527Z,13.63
2022-11-29T10:08:41.992Z,22.87
2022-11-29T10:11:23.865Z,15.77
2022-11-29T10:14:06.014Z,13.73
2022-11-29T10:17:00.534Z,18.07
2022-11-29T10:19:42.543Z,15.13
2022-11-29T10:22:23.358Z,17.17
2022-11-29T10:24:57.589Z,15.83
2022-11-29T10:27:28.066Z,18.30
2022-11-29T10:29:56.033Z,13.70
2022-11-29T10:32:25.685Z,15.07
2022-11-29T10:34:52.748Z,17.33
2022-11-29T10:37:22.015Z,15.30
2022-11-29T10:40:00.040Z,14.47
2022-11-29T10:42:47.561Z,12.97
2022-11-29T10:45:37.757Z,15.23
2022-11-29T10:48:18.123Z,12.57
2022-11-29T10:50:48.739Z,13.77
2022-11-29T10:53:25.005Z,15.77
2022-11-29T10:56:08.984Z,16.93
2022-11-29T10:58:36.696Z,17.33
2022-11-29T11:01:07.405Z,17.73
2022-11-29T11:03:48.975Z,20.60
2022-11-29T11:06:19.774Z,21.03
2022-11-29T11:08:52.731Z,20.60
2022-11-29T11:11:32.202Z,20.33
2022-11-29T11:14:20.654Z,18.07
2022-11-29T11:16:47.639Z,17.77
2022-11-29T11:19:34.591Z,21.20
2022-11-29T11:22:03.993Z,21.50
2022-11-29T11:24:36.585Z,19.73
2022-11-29T11:27:04.168Z,16.90
2022-11-29T11:29:43.959Z,16.10
2022-11-29T11:32:20.805Z,15.30
2022-11-29T11:34:57.800Z,13.90
2022-11-29T11:37:33.348Z,14.93
2022-11-29T11:40:29.211Z,14.73
2022-11-29T11:42:59.681Z,15.30
2022-11-29T11:45:36.559Z,13.73
2022-11-29T11:48:12.629Z,14.33
2022-11-29T11:50:50.373Z,13.53
2022-11-29T11:53:36.388Z,12.17
2022-11-29T11:56:08.717Z,13.00
2022-11-29T11:58:58.450Z,11.77
2022-11-29T12:01:27.245Z,13.20
2022-11-29T12:04:16.797Z,13.40
2022-11-29T12:06:55.541Z,12.60
2022-11-29T12:09:47.773Z,12.90
2022-11-29T12:12:31.349Z,12.57
2022-11-29T12:15:16.345Z,12.80
2022-11-29T12:17:58.020Z,13.37
2022-11-29T12:20:53.246Z,13.60
2022-11-29T12:23:53.944Z,14.73
2022-11-29T12:29:24.351Z,15.67
2022-11-29T12:32:15.726Z,18.37
2022-11-29T12:35:00.021Z,19.10
2022-11-29T12:37:39.285Z,16.87
2022-11-29T12:40:36.567Z,18.70
2022-11-29T12:43:39.314Z,19.07
2022-11-29T12:46:24.280Z,17.43
2022-11-29T12:49:31.795Z,16.63
2022-11-29T12:52:23.947Z,18.67
2022-11-29T12:55:28.592Z,16.30
2022-11-29T12:58:27.787Z,18.90
2022-11-29T13:01:46.214Z,20.33
2022-11-29T13:05:11.658Z,19.63
2022-11-29T13:08:18.365Z,20.47
2022-11-29T13:11:19.212Z,21.23
2022-11-29T13:14:43.601Z,21.43
2022-11-29T13:17:31.632Z,21.13
2022-11-29T13:20:22.848Z,22.27
2022-11-29T13:23:39.181Z,21.73
2022-11-29T13:26:12.516Z,21.50
2022-11-29T13:28:43.009Z,21.63
2022-11-29T13:31:16.652Z,19.50
2022-11-29T13:34:07.616Z,21.00
2022-11-29T13:37:04.794Z,20.80
2022-11-29T13:39:46.633Z,19.53
2022-11-29T13:42:49.727Z,22.23
2022-11-29T13:45:22.815Z,19.13
2022-11-29T13:48:01.933Z,17.07
2022-11-29T13:50:36.433Z,17.60
2022-11-29T13:53:24.805Z,16.80
2022-11-29T13:56:01.954Z,15.60
2022-11-29T13:58:28.897Z,17.37
2022-11-29T14:01:12.474Z,17.33
2022-11-29T14:03:45.104Z,17.63
2022-11-29T14:06:24.629Z,17.40
2022-11-29T14:12:25.321Z,19.00
2022-11-29T14:14:57.100Z,19.20
2022-11-29T14:17:47.486Z,19.10
2022-11-29T14:20:23.374Z,18.07
2022-11-29T14:23:05.302Z,16.67
2022-11-29T14:25:51.083Z,17.27
2022-11-29T14:28:18.289Z,18.63
2022-11-29T14:30:46.733Z,17.23
2022-11-29T14:33:34.275Z,17.23
2022-11-29T14:36:21.829Z,17.60
2022-11-29T14:39:26.596Z,18.73
2022-11-29T14:42:19.752Z,17.37
2022-11-29T14:44:53.151Z,18.70
2022-11-29T14:47:37.117Z,19.00
2022-11-29T14:50:08.967Z,19.00
2022-11-29T14:52:52.123Z,20.57
2022-11-29T14:55:36.586Z,18.50
2022-11-29T14:58:26.542Z,19.43
2022-11-29T15:01:03.850Z,18.90
2022-11-29T15:03:47.321Z,18.87
2022-11-29T15:06:31.350Z,19.17
2022-11-29T15:09:05.888Z,19.93
2022-11-29T15:12:08.703Z,20.47
2022-11-29T15:15:24.364Z,20.80
2022-11-29T15:18:07.000Z,18.93
2022-11-29T15:20:58.101Z,20.10
2022-11-29T15:23:25.041Z,21.27
2022-11-29T15:25:55.060Z,22.00
2022-11-29T15:28:28.909Z,23.53
2022-11-29T15:31:12.091Z,20.63
2022-11-29T15:33:45.224Z,24.30
2022-11-29T15:36:17.511Z,25.17
2022-11-29T15:38:54.153Z,25.77
2022-11-29T15:41:27.624Z,24.43
2022-11-29T15:43:59.811Z,23.97
2022-11-29T15:46:29.927Z,23.20
2022-11-29T15:49:23.170Z,21.73
2022-11-29T15:51:57.024Z,21.60
2022-11-29T15:54:46.141Z,21.47
2022-11-29T15:57:25.850Z,20.67
2022-11-29T16:00:04.089Z,19.97
2022-11-29T16:02:37.204Z,20.20
2022-11-29T16:05:18.336Z,18.67
2022-11-29T16:07:48.145Z,20.23
2022-11-29T16:10:19.828Z,23.23
2022-11-29T16:12:59.583Z,24.30
2022-11-29T16:15:34.971Z,32.37
2022-11-29T16:18:21.101Z,21.97
2022-11-29T16:21:03.015Z,27.40
2022-11-29T16:23:42.262Z,35.77
2022-11-29T16:26:22.470Z,25.83
2022-11-29T16:28:53.691Z,25.27
2022-11-29T16:31:27.859Z,31.03
2022-11-29T16:33:55.074Z,26.97
2022-11-29T16:36:26.854Z,55.13
2022-11-29T16:39:00.822Z,27.43
2022-11-29T16:41:38.328Z,26.47
2022-11-29T16:44:46.960Z,35.43
2022-11-29T16:47:24.931Z,27.50
2022-11-29T16:50:21.343Z,25.53
2022-11-29T16:52:54.856Z,22.87
2022-11-29T16:55:23.985Z,34.27
2022-11-29T16:57:52.105Z,28.77
2022-11-29T17:00:31.608Z,26.07
2022-11-29T17:02:59.702Z,19.37
2022-11-29T17:05:29.535Z,25.23
2022-11-29T17:07:56.776Z,21.43
2022-11-29T17:10:25.795Z,19.07
2022-11-29T17:12:52.839Z,19.57
2022-11-29T17:15:19.916Z,21.93
2022-11-29T17:17:46.901Z,21.80
2022-11-29T17:20:14.266Z,23.13
2022-11-29T17:22:41.628Z,19.23
2022-11-29T17:25:09.663Z,20.73
2022-11-29T17:27:37.076Z,19.43
2022-11-29T17:30:09.190Z,21.10
2022-11-29T17:32:36.145Z,22.60
2022-11-29T17:35:03.294Z,22.23
2022-11-29T17:37:31.010Z,20.27
2022-11-29T17:39:58.003Z,21.93
2022-11-29T17:42:25.005Z,24.07
2022-11-29T17:44:51.946Z,19.63
2022-11-29T17:47:18.889Z,22.63
2022-11-29T17:49:46.269Z,18.63
2022-11-29T17:52:13.328Z,28.40
2022-11-29T17:54:40.312Z,28.33
2022-11-29T17:57:07.257Z,24.33
2022-11-29T17:59:34.223Z,27.57
2022-11-29T18:02:02.259Z,20.57
2022-11-29T18:04:29.392Z,22.83
2022-11-29T18:06:56.481Z,17.30
2022-11-29T18:09:23.365Z,17.50
2022-11-29T18:11:50.852Z,17.10
2022-11-29T18:14:23.824Z,16.33
2022-11-29T18:16:52.329Z,17.03
2022-11-29T18:19:22.226Z,17.07
2022-11-29T18:21:50.432Z,23.60
2022-11-29T18:24:17.950Z,23.40
2022-11-29T18:26:52.101Z,18.43
2022-11-29T18:29:19.296Z,24.47
2022-11-29T18:31:47.122Z,19.33
2022-11-29T18:34:14.957Z,14.97
2022-11-29T18:36:46.110Z,14.33
2022-11-29T18:39:19.018Z,16.53
2022-11-29T18:41:50.374Z,17.37
2022-11-29T18:44:21.414Z,15.57
2022-11-29T18:46:48.745Z,14.97
2022-11-29T18:49:17.782Z,12.73
2022-11-29T18:51:46.433Z,17.50
2022-11-29T18:54:18.110Z,15.57
2022-11-29T18:56:46.277Z,16.10
2022-11-29T18:59:19.581Z,17.33
2022-11-29T19:01:48.468Z,20.27
2022-11-29T19:04:19.929Z,16.37
2022-11-29T19:06:48.054Z,16.87
2022-11-29T19:09:21.100Z,17.53
2022-11-29T19:11:49.640Z,23.70
2022-11-29T19:14:16.765Z,18.27
2022-11-29T19:16:46.509Z,20.83
2022-11-29T19:19:13.600Z,18.53
2022-11-29T19:21:41.398Z,19.83
2022-11-29T19:24:15.934Z,22.93
2022-11-29T19:26:46.137Z,20.33
2022-11-29T19:29:14.188Z,21.77
2022-11-29T19:31:42.327Z,21.13
2022-11-29T19:34:09.373Z,20.40
2022-11-29T19:36:42.409Z,22.87
2022-11-29T19:39:11.637Z,22.50
2022-11-29T19:41:38.689Z,22.70
2022-11-29T19:44:08.092Z,22.97
2022-11-29T19:46:45.850Z,20.47
2022-11-29T19:49:13.161Z,21.07
2022-11-29T19:51:40.262Z,21.70
2022-11-29T19:54:09.665Z,18.23
2022-11-29T19:56:37.057Z,17.33
2022-11-29T19:59:04.092Z,18.43
2022-11-29T20:01:40.212Z,19.87
2022-11-29T20:04:09.808Z,21.50
2022-11-29T20:06:37.136Z,17.30
2022-11-29T20:09:04.302Z,20.20
2022-11-29T20:11:34.517Z,19.87
2022-11-29T20:14:03.407Z,23.17
2022-11-29T20:16:31.987Z,21.80
2022-11-29T20:18:59.367Z,17.97
2022-11-29T20:21:31.243Z,22.27
2022-11-29T20:24:07.790Z,16.93
2022-11-29T20:26:38.466Z,18.50
2022-11-29T20:29:08.323Z,19.67
2022-11-29T20:31:37.307Z,17.63
2022-11-29T20:34:05.245Z,15.20
2022-11-29T20:37:22.144Z,18.40
2022-11-29T20:40:00.224Z,18.23
2022-11-29T20:42:36.014Z,12.70
2022-11-29T20:45:08.690Z,17.23
2022-11-29T20:48:19.186Z,16.33
2022-11-29T20:50:57.415Z,13.63
2022-11-29T20:53:36.679Z,13.80
2022-11-29T20:56:06.094Z,14.50
2022-11-29T20:58:33.571Z,16.37
2022-11-29T21:01:00.802Z,18.13
2022-11-29T21:03:29.024Z,22.20
2022-11-29T21:05:56.756Z,22.83
2022-11-29T21:08:26.592Z,17.67
2022-11-29T21:10:54.680Z,18.10
2022-11-29T21:13:23.648Z,21.30
2022-11-29T21:15:53.451Z,24.63
2022-11-29T21:18:27.285Z,20.40
2022-11-29T21:21:24.463Z,21.13
2022-11-29T21:24:01.477Z,19.67
2022-11-29T21:26:45.476Z,21.60
2022-11-29T21:29:19.277Z,17.77
2022-11-29T21:31:52.462Z,19.10
2022-11-29T21:34:20.730Z,19.83
2022-11-29T21:36:58.462Z,17.43
2022-11-29T21:39:39.501Z,18.27
2022-11-29T21:42:09.247Z,19.40
2022-11-29T21:44:36.206Z,17.47
2022-11-29T21:47:03.306Z,20.10
2022-11-29T21:49:35.438Z,18.13
2022-11-29T21:52:02.468Z,18.07
2022-11-29T21:54:29.937Z,20.30
2022-11-29T21:56:56.892Z,20.37
2022-11-29T21:59:29.722Z,21.37
2022-11-29T22:01:58.443Z,20.13
2022-11-29T22:04:26.276Z,22.03
2022-11-29T22:06:55.313Z,19.27
2022-11-29T22:09:22.374Z,50.83
2022-11-29T22:11:52.092Z,36.50
2022-11-29T22:14:20.433Z,27.47
2022-11-29T22:16:58.829Z,40.70
2022-11-29T22:19:34.991Z,30.23
2022-11-29T22:22:05.624Z,23.50
2022-11-29T22:24:35.183Z,20.37
2022-11-29T22:27:02.833Z,36.70
2022-11-29T22:29:29.776Z,47.03
2022-11-29T22:32:00.347Z,47.87
2022-11-29T22:34:28.106Z,18.10
2022-11-29T22:36:58.666Z,20.40
2022-11-29T22:39:25.705Z,29.00
2022-11-29T22:41:54.964Z,28.67
2022-11-29T22:44:27.340Z,22.10
2022-11-29T22:46:54.393Z,22.17
2022-11-29T22:49:21.731Z,20.60
2022-11-29T22:51:50.059Z,20.50
2022-11-29T22:54:17.972Z,17.87
2022-11-29T22:56:45.974Z,19.77
2022-11-29T22:59:14.243Z,17.80
2022-11-29T23:01:42.418Z,19.23
2022-11-29T23:04:11.505Z,18.63
2022-11-29T23:06:44.086Z,19.20
2022-11-29T23:09:22.073Z,17.60
2022-11-29T23:11:55.799Z,18.70
2022-11-29T23:14:23.846Z,18.67
2022-11-29T23:16:51.221Z,18.27
2022-11-29T23:19:18.430Z,18.47
2022-11-29T23:21:49.354Z,16.73
2022-11-29T23:24:16.378Z,17.13
2022-11-29T23:26:46.483Z,17.07
2022-11-29T23:29:17.351Z,18.27
2022-11-29T23:31:44.508Z,17.23
2022-11-29T23:34:11.644Z,16.80
2022-11-29T23:36:38.614Z,18.23
2022-11-29T23:39:06.697Z,19.30
2022-11-29T23:41:36.205Z,19.87
2022-11-29T23:44:05.256Z,16.17
2022-11-29T23:46:32.977Z,18.10
2022-11-29T23:48:59.898Z,19.57
2022-11-29T23:51:26.962Z,17.07
2022-11-29T23:53:54.575Z,18.23
2022-11-29T23:56:22.721Z,17.90
2022-11-29T23:58:50.253Z,17.23
